createdAt,value
2023-04-26T00:02:06.179Z,9.11
2023-04-26T00:05:10.107Z,9.10
2023-04-26T00:08:13.369Z,9.08
2023-04-26T00:11:16.173Z,9.02
2023-04-26T00:14:19.508Z,8.99
2023-04-26T00:17:24.027Z,8.98
2023-04-26T00:20:29.144Z,9.00
2023-04-26T00:23:32.249Z,9.05
2023-04-26T00:26:37.483Z,9.06
2023-04-26T00:29:41.373Z,9.10
2023-04-26T00:32:44.180Z,9.11
2023-04-26T00:35:46.937Z,9.15
2023-04-26T00:38:49.677Z,9.18
2023-04-26T00:41:53.405Z,9.21
2023-04-26T00:44:57.727Z,9.16
2023-04-26T00:48:02.465Z,9.18
2023-04-26T00:51:06.583Z,9.15
2023-04-26T00:54:10.235Z,9.12
2023-04-26T00:57:12.879Z,9.11
2023-04-26T01:00:28.974Z,9.05
2023-04-26T01:03:31.646Z,9.03
2023-04-26T01:06:38.592Z,8.86
2023-04-26T01:09:44.193Z,8.83
2023-04-26T01:12:48.002Z,8.84
2023-04-26T01:15:54.891Z,8.76
2023-04-26T01:18:58.125Z,8.72
2023-04-26T01:22:01.028Z,8.66
2023-04-26T01:25:09.102Z,8.58
2023-04-26T01:28:11.981Z,8.50
2023-04-26T01:31:14.743Z,8.48
2023-04-26T01:34:17.670Z,8.41
2023-04-26T01:37:21.902Z,8.43
2023-04-26T01:40:26.856Z,8.40
2023-04-26T01:43:30.868Z,8.36
2023-04-26T01:46:38.361Z,8.34
2023-04-26T01:49:41.906Z,8.33
2023-04-26T01:52:45.754Z,8.32
2023-04-26T01:55:49.236Z,8.30
2023-04-26T01:58:52.245Z,8.32
2023-04-26T02:01:56.484Z,8.29
2023-04-26T02:04:59.648Z,8.35
2023-04-26T02:08:03.343Z,8.36
2023-04-26T02:11:07.368Z,8.35
2023-04-26T02:14:12.024Z,8.35
2023-04-26T02:17:15.016Z,8.34
2023-04-26T02:20:18.006Z,8.38
2023-04-26T02:23:22.038Z,8.37
2023-04-26T02:26:27.003Z,8.41
2023-04-26T02:32:39.458Z,8.31
2023-04-26T02:35:42.312Z,8.25
2023-04-26T02:38:46.553Z,8.22
2023-04-26T02:41:50.090Z,8.20
2023-04-26T02:44:52.612Z,8.10
2023-04-26T02:47:55.757Z,8.13
2023-04-26T02:50:59.906Z,8.13
2023-04-26T02:54:04.626Z,8.11
2023-04-26T02:57:10.384Z,8.07
2023-04-26T03:00:14.346Z,7.97
2023-04-26T03:03:17.302Z,7.85
2023-04-26T03:06:22.345Z,7.86
2023-04-26T03:09:25.053Z,7.82
2023-04-26T03:12:29.247Z,7.85
2023-04-26T03:15:32.006Z,7.78
2023-04-26T03:18:36.658Z,7.74
2023-04-26T03:21:43.313Z,7.71
2023-04-26T03:24:47.954Z,7.71
2023-04-26T03:27:51.128Z,7.70
2023-04-26T03:30:57.322Z,7.69
2023-04-26T03:34:02.455Z,7.68
2023-04-26T03:37:05.391Z,7.67
2023-04-26T03:40:11.039Z,7.56
2023-04-26T03:43:14.538Z,7.57
2023-04-26T03:46:17.350Z,7.59
2023-04-26T03:49:22.104Z,7.58
2023-04-26T03:52:25.412Z,7.62
2023-04-26T03:55:28.838Z,7.62
2023-04-26T03:58:32.388Z,7.61
2023-04-26T04:01:36.723Z,7.67
2023-04-26T04:04:44.109Z,7.73
2023-04-26T04:07:49.248Z,7.77
2023-04-26T04:10:53.206Z,7.82
2023-04-26T04:13:58.677Z,7.84
2023-04-26T04:17:08.629Z,7.83
2023-04-26T04:20:17.945Z,7.95
2023-04-26T04:23:27.656Z,7.97
2023-04-26T04:26:30.604Z,8.06
2023-04-26T04:29:36.490Z,8.03
2023-04-26T04:32:45.219Z,7.95
2023-04-26T04:35:48.387Z,7.99
2023-04-26T04:38:56.304Z,8.07
2023-04-26T04:42:07.036Z,8.21
2023-04-26T04:45:10.842Z,8.34
2023-04-26T04:48:15.961Z,8.42
2023-04-26T04:51:19.228Z,8.50
2023-04-26T04:54:23.589Z,8.52
2023-04-26T04:57:27.693Z,8.75
2023-04-26T05:00:32.286Z,8.75
2023-04-26T05:03:36.735Z,8.88
2023-04-26T05:06:39.971Z,8.97
2023-04-26T05:09:46.281Z,8.97
2023-04-26T05:12:50.002Z,9.17
2023-04-26T05:15:54.289Z,9.27
2023-04-26T05:18:58.523Z,9.41
2023-04-26T05:22:01.692Z,9.36
2023-04-26T05:25:08.564Z,9.47
2023-04-26T05:28:14.024Z,9.57
2023-04-26T05:31:17.868Z,9.65
2023-04-26T05:34:23.066Z,9.69
2023-04-26T05:37:27.073Z,9.79
2023-04-26T05:40:32.489Z,9.95
2023-04-26T05:43:36.080Z,10.11
2023-04-26T05:46:39.542Z,10.47
2023-04-26T05:49:44.418Z,11.55
2023-04-26T05:52:47.752Z,12.29
2023-04-26T05:55:59.284Z,13.62
2023-04-26T05:59:03.037Z,14.63
2023-04-26T06:02:11.715Z,15.00
2023-04-26T06:05:23.359Z,15.13
2023-04-26T06:08:28.526Z,15.60
2023-04-26T06:11:35.583Z,16.17
2023-04-26T06:14:38.422Z,16.68
2023-04-26T06:17:42.257Z,17.59
2023-04-26T06:20:47.398Z,16.49
2023-04-26T06:23:53.238Z,16.98
2023-04-26T06:26:58.588Z,17.43
2023-04-26T06:30:02.353Z,17.62
2023-04-26T06:33:07.214Z,17.30
2023-04-26T06:36:13.401Z,17.69
2023-04-26T06:39:17.987Z,17.95
2023-04-26T06:42:22.494Z,17.84
2023-04-26T06:45:26.113Z,18.13
2023-04-26T06:48:34.056Z,18.32
2023-04-26T06:51:39.372Z,17.98
2023-04-26T06:54:53.567Z,17.76
2023-04-26T06:58:06.186Z,18.04
2023-04-26T07:01:11.359Z,18.41
2023-04-26T07:04:15.478Z,18.05
2023-04-26T07:07:18.567Z,17.70
2023-04-26T07:10:22.985Z,17.86
2023-04-26T07:13:26.147Z,17.53
2023-04-26T07:16:30.070Z,18.27
2023-04-26T07:19:34.489Z,18.47
2023-04-26T07:22:39.124Z,17.00
2023-04-26T07:25:42.052Z,17.79
2023-04-26T07:28:47.192Z,18.11
2023-04-26T07:31:52.012Z,17.81
2023-04-26T07:34:57.404Z,17.92
2023-04-26T07:38:01.473Z,17.46
2023-04-26T07:41:05.526Z,17.53
2023-04-26T07:44:11.552Z,17.52
2023-04-26T07:47:18.225Z,17.39
2023-04-26T07:50:21.722Z,16.90
2023-04-26T07:53:24.209Z,17.41
2023-04-26T07:56:36.124Z,16.80
2023-04-26T07:59:39.080Z,17.63
2023-04-26T08:02:45.445Z,16.53
2023-04-26T08:05:49.413Z,17.34
2023-04-26T08:08:53.933Z,17.80
2023-04-26T08:12:00.501Z,17.68
2023-04-26T08:15:06.124Z,17.12
2023-04-26T08:18:10.147Z,17.53
2023-04-26T08:21:14.907Z,17.97
2023-04-26T08:24:17.930Z,18.17
2023-04-26T08:27:22.992Z,17.70
2023-04-26T08:30:26.668Z,17.67
2023-04-26T08:33:29.198Z,17.33
2023-04-26T08:36:37.436Z,16.71
2023-04-26T08:39:40.381Z,17.67
2023-04-26T08:42:44.509Z,17.35
2023-04-26T08:45:49.145Z,18.02
2023-04-26T08:49:11.027Z,17.32
2023-04-26T08:52:16.977Z,16.83
2023-04-26T08:55:23.131Z,17.43
2023-04-26T08:58:27.149Z,16.98
2023-04-26T09:01:32.410Z,17.84
2023-04-26T09:04:36.397Z,17.80
2023-04-26T09:07:46.990Z,17.74
2023-04-26T09:10:50.012Z,17.77
2023-04-26T09:13:53.165Z,17.64
2023-04-26T09:16:56.979Z,18.14
2023-04-26T09:20:01.452Z,18.00
2023-04-26T09:23:12.936Z,18.49
2023-04-26T09:26:22.546Z,17.62
2023-04-26T09:29:25.575Z,17.94
2023-04-26T09:32:59.038Z,17.39
2023-04-26T09:36:21.646Z,17.37
2023-04-26T09:39:37.461Z,17.93
2023-04-26T09:42:42.234Z,17.91
2023-04-26T09:45:50.602Z,17.50
2023-04-26T09:49:03.779Z,17.63
2023-04-26T09:52:13.978Z,18.12
2023-04-26T09:55:35.437Z,18.43
2023-04-26T09:58:53.566Z,18.28
2023-04-26T10:01:56.672Z,18.88
2023-04-26T10:05:02.217Z,19.09
2023-04-26T10:08:12.055Z,19.00
2023-04-26T10:11:22.058Z,18.84
2023-04-26T10:14:32.326Z,19.17
2023-04-26T10:17:35.252Z,18.86
2023-04-26T10:20:45.005Z,17.89
2023-04-26T10:23:50.246Z,18.31
2023-04-26T10:26:56.868Z,17.52
2023-04-26T10:30:01.109Z,16.43
2023-04-26T10:33:14.177Z,17.14
2023-04-26T10:36:21.227Z,18.42
2023-04-26T10:39:25.994Z,17.50
2023-04-26T10:42:31.016Z,17.11
2023-04-26T10:45:35.051Z,17.19
2023-04-26T10:48:39.547Z,17.37
2023-04-26T10:52:10.256Z,18.04
2023-04-26T10:55:41.090Z,17.57
2023-04-26T10:58:46.766Z,16.85
2023-04-26T11:01:54.066Z,17.27
2023-04-26T11:05:04.217Z,18.30
2023-04-26T11:08:18.639Z,18.04
2023-04-26T11:11:27.223Z,17.81
2023-04-26T11:14:33.079Z,18.12
2023-04-26T11:17:42.326Z,18.41
2023-04-26T11:20:47.543Z,18.19
2023-04-26T11:23:54.715Z,17.46
2023-04-26T11:26:59.951Z,16.71
2023-04-26T11:30:10.049Z,16.97
2023-04-26T11:33:24.051Z,17.98
2023-04-26T11:36:28.482Z,18.55
2023-04-26T11:39:36.307Z,18.22
2023-04-26T11:42:42.315Z,17.22
2023-04-26T11:45:47.387Z,16.16
2023-04-26T11:48:52.085Z,15.71
2023-04-26T11:51:58.241Z,15.36
2023-04-26T11:55:07.732Z,15.34
2023-04-26T11:58:13.968Z,15.34
2023-04-26T12:01:28.637Z,15.17
2023-04-26T12:04:33.120Z,17.10
2023-04-26T12:07:41.074Z,16.82
2023-04-26T12:10:47.548Z,16.20
2023-04-26T12:13:52.163Z,15.83
2023-04-26T12:16:55.710Z,15.75
2023-04-26T12:20:00.199Z,15.68
2023-04-26T12:23:20.057Z,15.81
2023-04-26T12:26:42.000Z,15.61
2023-04-26T12:29:47.035Z,15.42
2023-04-26T12:32:50.321Z,15.70
2023-04-26T12:36:01.028Z,15.66
2023-04-26T12:39:07.068Z,16.31
2023-04-26T12:42:13.512Z,17.22
2023-04-26T12:45:31.032Z,17.73
2023-04-26T12:48:34.995Z,17.24
2023-04-26T12:51:41.055Z,16.64
2023-04-26T12:54:51.032Z,15.89
2023-04-26T12:58:00.088Z,15.17
2023-04-26T13:01:05.454Z,15.10
2023-04-26T13:04:11.739Z,14.84
2023-04-26T13:07:23.321Z,14.67
2023-04-26T13:10:30.052Z,14.71
2023-04-26T13:13:43.062Z,14.90
2023-04-26T13:16:50.185Z,14.58
2023-04-26T13:20:03.017Z,14.81
2023-04-26T13:23:10.644Z,14.45
2023-04-26T13:26:18.038Z,14.72
2023-04-26T13:29:23.109Z,14.77
2023-04-26T13:32:27.076Z,15.05
2023-04-26T13:35:30.852Z,15.72
2023-04-26T13:38:35.138Z,16.04
2023-04-26T13:41:38.971Z,15.47
2023-04-26T13:44:45.300Z,14.88
2023-04-26T13:47:52.131Z,14.40
2023-04-26T13:50:56.462Z,14.10
2023-04-26T13:54:00.742Z,14.13
2023-04-26T13:57:06.984Z,14.16
2023-04-26T14:00:12.249Z,14.03
2023-04-26T14:03:17.107Z,13.70
2023-04-26T14:06:24.045Z,13.92
2023-04-26T14:09:28.192Z,14.36
2023-04-26T14:12:32.541Z,14.49
2023-04-26T14:15:37.150Z,14.41
2023-04-26T14:18:45.169Z,14.47
2023-04-26T14:21:52.036Z,14.98
2023-04-26T14:24:59.290Z,14.98
2023-04-26T14:28:04.281Z,15.29
2023-04-26T14:31:18.078Z,15.50
2023-04-26T14:34:34.987Z,15.29
2023-04-26T14:37:41.691Z,15.64
2023-04-26T14:40:45.674Z,15.75
2023-04-26T14:43:53.828Z,15.16
2023-04-26T14:47:04.634Z,14.68
2023-04-26T14:50:11.313Z,14.22
2023-04-26T14:53:22.077Z,13.96
2023-04-26T14:56:26.388Z,13.73
2023-04-26T14:59:34.051Z,13.94
2023-04-26T15:02:51.775Z,14.17
2023-04-26T15:06:01.187Z,13.96
2023-04-26T15:09:14.980Z,13.68
2023-04-26T15:12:28.090Z,13.97
2023-04-26T15:15:39.082Z,14.54
2023-04-26T15:18:45.818Z,14.65
2023-04-26T15:22:02.515Z,14.72
2023-04-26T15:25:06.953Z,14.59
2023-04-26T15:28:11.669Z,14.33
2023-04-26T15:31:15.435Z,14.57
2023-04-26T15:34:27.262Z,14.58
2023-04-26T15:37:35.042Z,14.66
2023-04-26T15:40:44.001Z,14.57
2023-04-26T15:44:05.894Z,14.41
2023-04-26T15:47:12.292Z,14.23
2023-04-26T15:50:17.664Z,14.29
2023-04-26T15:53:21.926Z,14.18
2023-04-26T15:56:28.079Z,13.88
2023-04-26T15:59:39.959Z,13.41
2023-04-26T16:02:52.179Z,13.13
2023-04-26T16:06:01.022Z,12.95
2023-04-26T16:09:17.099Z,12.79
2023-04-26T16:12:38.079Z,12.73
2023-04-26T16:15:44.117Z,12.76
2023-04-26T16:18:50.383Z,12.86
2023-04-26T16:21:54.022Z,12.92
2023-04-26T16:25:12.420Z,12.93
2023-04-26T16:28:18.627Z,12.91
2023-04-26T16:31:24.477Z,12.95
2023-04-26T16:34:40.111Z,12.95
2023-04-26T16:37:49.024Z,13.00
2023-04-26T16:40:59.167Z,12.87
2023-04-26T16:44:11.094Z,12.76
2023-04-26T16:47:18.020Z,12.76
2023-04-26T16:50:26.101Z,12.56
2023-04-26T16:53:40.339Z,12.43
2023-04-26T16:56:44.596Z,12.18
2023-04-26T16:59:51.772Z,12.01
2023-04-26T17:03:02.206Z,11.85
2023-04-26T17:06:11.900Z,11.81
2023-04-26T17:09:19.076Z,11.67
2023-04-26T17:12:29.028Z,11.57
2023-04-26T17:15:36.912Z,11.60
2023-04-26T17:18:47.044Z,11.58
2023-04-26T17:22:03.119Z,11.50
2023-04-26T17:25:09.045Z,11.32
2023-04-26T17:28:16.469Z,11.33
2023-04-26T17:31:22.106Z,11.31
2023-04-26T17:34:27.983Z,11.20
2023-04-26T17:37:32.381Z,11.14
2023-04-26T17:40:45.154Z,11.06
2023-04-26T17:43:58.054Z,10.93
2023-04-26T17:47:08.435Z,10.87
2023-04-26T17:50:18.928Z,10.76
2023-04-26T17:53:29.577Z,10.68
2023-04-26T17:56:35.025Z,10.53
2023-04-26T17:59:42.036Z,10.48
2023-04-26T18:02:48.680Z,10.41
2023-04-26T18:05:54.513Z,10.35
2023-04-26T18:09:12.183Z,10.28
2023-04-26T18:12:15.848Z,10.20
2023-04-26T18:15:23.010Z,10.07
2023-04-26T18:18:28.007Z,10.04
2023-04-26T18:21:45.117Z,9.94
2023-04-26T18:24:57.275Z,9.87
2023-04-26T18:28:01.391Z,9.78
2023-04-26T18:31:09.081Z,9.72
2023-04-26T18:34:18.063Z,9.69
2023-04-26T18:37:28.170Z,9.60
2023-04-26T18:40:35.889Z,9.58
2023-04-26T18:43:42.016Z,9.52
2023-04-26T18:46:53.149Z,9.50
2023-04-26T18:50:07.084Z,9.42
2023-04-26T18:53:24.221Z,9.31
2023-04-26T18:56:31.194Z,9.09
2023-04-26T18:59:49.035Z,9.04
2023-04-26T19:02:54.940Z,8.88
2023-04-26T19:06:09.955Z,8.82
2023-04-26T19:09:15.380Z,8.78
2023-04-26T19:12:20.561Z,8.75
2023-04-26T19:15:26.085Z,8.78
2023-04-26T19:18:34.214Z,8.70
2023-04-26T19:21:48.913Z,8.66
2023-04-26T19:24:57.304Z,8.50
2023-04-26T19:28:05.345Z,8.37
2023-04-26T19:31:11.183Z,8.17
2023-04-26T19:34:15.404Z,8.04
2023-04-26T19:37:21.115Z,7.86
2023-04-26T19:40:37.973Z,7.80
2023-04-26T19:43:57.380Z,7.72
2023-04-26T19:47:03.531Z,7.77
2023-04-26T19:50:12.224Z,7.66
2023-04-26T19:53:19.316Z,7.42
2023-04-26T19:56:23.292Z,7.36
2023-04-26T19:59:27.529Z,7.25
2023-04-26T20:02:32.291Z,7.15
2023-04-26T20:05:38.366Z,7.08
2023-04-26T20:08:43.080Z,7.02
2023-04-26T20:12:00.056Z,7.00
2023-04-26T20:15:07.015Z,6.87
2023-04-26T20:18:12.057Z,6.91
2023-04-26T20:21:21.417Z,6.89
2023-04-26T20:24:29.579Z,6.88
2023-04-26T20:27:35.039Z,6.84
2023-04-26T20:30:43.056Z,6.91
2023-04-26T20:33:47.066Z,6.70
2023-04-26T20:36:54.390Z,6.62
2023-04-26T20:39:59.687Z,6.53
2023-04-26T20:43:09.500Z,6.32
2023-04-26T20:46:16.369Z,6.25
2023-04-26T20:49:21.831Z,6.17
2023-04-26T20:52:30.429Z,6.17
2023-04-26T20:55:34.242Z,6.06
2023-04-26T20:58:37.698Z,6.02
2023-04-26T21:01:42.334Z,5.95
2023-04-26T21:04:52.185Z,5.85
2023-04-26T21:07:56.660Z,5.85
2023-04-26T21:11:02.061Z,5.81
2023-04-26T21:14:06.805Z,5.70
2023-04-26T21:17:09.694Z,5.59
2023-04-26T21:20:13.727Z,5.56
2023-04-26T21:23:16.724Z,5.53
2023-04-26T21:26:21.573Z,5.50
2023-04-26T21:29:24.406Z,5.47
2023-04-26T21:32:28.125Z,5.44
2023-04-26T21:35:31.508Z,5.34
2023-04-26T21:38:35.677Z,5.34
2023-04-26T21:41:39.272Z,5.40
2023-04-26T21:44:42.567Z,5.40
2023-04-26T21:47:45.556Z,5.33
2023-04-26T21:50:50.953Z,5.23
2023-04-26T21:53:55.484Z,5.16
2023-04-26T21:56:58.272Z,5.05
2023-04-26T22:00:01.226Z,5.06
2023-04-26T22:03:04.628Z,5.01
2023-04-26T22:06:09.549Z,4.93
2023-04-26T22:09:13.576Z,4.88
2023-04-26T22:12:16.991Z,4.82
2023-04-26T22:15:20.643Z,4.76
2023-04-26T22:18:26.048Z,4.80
2023-04-26T22:21:29.998Z,4.76
2023-04-26T22:24:34.270Z,4.73
2023-04-26T22:27:37.368Z,4.77
2023-04-26T22:30:41.026Z,4.74
2023-04-26T22:33:56.971Z,4.77
2023-04-26T22:37:13.036Z,4.78
2023-04-26T22:40:20.951Z,4.76
2023-04-26T22:43:23.974Z,4.76
2023-04-26T22:46:26.508Z,4.77
2023-04-26T22:49:30.992Z,4.85
2023-04-26T22:52:34.731Z,4.91
2023-04-26T22:55:37.651Z,5.00
2023-04-26T22:58:40.232Z,4.92
2023-04-26T23:01:44.336Z,5.04
2023-04-26T23:04:47.212Z,5.04
2023-04-26T23:07:50.460Z,5.00
2023-04-26T23:10:53.416Z,4.96
2023-04-26T23:13:56.755Z,4.97
2023-04-26T23:16:59.308Z,4.74
2023-04-26T23:20:11.786Z,4.70
2023-04-26T23:23:14.615Z,4.65
2023-04-26T23:26:17.650Z,4.68
2023-04-26T23:29:21.049Z,4.70
2023-04-26T23:32:24.099Z,4.72
2023-04-26T23:35:27.075Z,4.65
2023-04-26T23:38:29.968Z,4.61
2023-04-26T23:41:33.245Z,4.60
2023-04-26T23:44:36.298Z,4.42
2023-04-26T23:47:39.067Z,4.38
2023-04-26T23:50:42.332Z,4.25
2023-04-26T23:53:45.597Z,4.23
2023-04-26T23:56:55.203Z,4.18
2023-04-26T23:59:58.382Z,4.16
